Flight Track Log - Related Links

Times and Time Zones

All times are in EDT time to prevent confusion due to time zone crossing. See the AEE126 flight status page for this flight to view local times or setup timezone preferences in your user account.

Time Position Orientation Groundspeed Altitude Reporting Facility
EDT Latitude Longitude Course Direction KTS MPH feet Rate Location/Type
Wed 12:50:00 PM 38.6747 23.6737 344° North  Level Estimated
Wed 12:51:00 PM 38.8592 23.6052 344° North  Level Estimated
Wed 12:52:00 PM 39.0437 23.5363 344° North  Level Estimated
Wed 12:53:00 PM 39.2281 23.4670 344° North  Level Estimated
Wed 12:54:00 PM 39.4124 23.3974 344° North  Level Estimated
Wed 12:55:00 PM 39.5968 23.3274 344° North  Level Estimated
Wed 12:56:00 PM 39.7811 23.2570 344° North  Level Estimated
Wed 12:57:00 PM 39.9653 23.1863 344° North  Level Estimated
Wed 12:58:00 PM 40.1495 23.1151 344° North  Level Estimated
Wed 12:59:00 PM 40.3337 23.0436 344° North  Level Estimated
Wed 01:00:00 PM 40.5178 22.9717 343° North  Level Estimated
Wed 01:01:00 PM 40.5197 22.9709 343° North  Level Estimated
Wed 01:02:00 PM 40.5197 22.9709 180° South  Level Estimated
Wed 01:03:00 PM 40.5197 22.9709 180° South  Level Estimated
Wed 01:04:00 PM 40.5197 22.9709 180° South  Level Estimated
Wed 01:05:00 PM 40.5197 22.9709 180° South  Level Estimated
Wed 01:06:00 PM 40.5197 22.9709 180° South  Level Estimated
Wed 01:07:00 PM 40.5197 22.9709 180° South  Level Estimated
Wed 01:08:00 PM 40.5197 22.9709 180° South  Level Estimated
Wed 01:09:00 PM 40.5197 22.9709 180° South  Level Estimated
Wed 01:10:00 PM 40.5197 22.9709 180° South  Level Estimated
Wed 01:11:00 PM 40.5197 22.9709 180° South  Level Estimated
Wed 01:12:00 PM 40.5197 22.9709 180° South  Level Estimated
Wed 01:13:00 PM 40.5197 22.9709 180° South  Level Estimated
Wed 01:14:00 PM 40.5197 22.9709 180° South  Level Estimated
Wed 01:15:00 PM 40.5197 22.9709 180° South  Level Estimated
Wed 01:16:00 PM 40.5197 22.9709 180° South  Level Estimated

Login

Don't have an account? Register now (free) for customized features, flight alerts, and more!